sensor_id;sensor_type;location;lat;lon;timestamp;pressure;altitude;pressure_sealevel;temperature;humidity
74881;BME280;63427;49.654;6.596;2022-12-10T00:01:56;98687.72;;;5.69;37.85
74881;BME280;63427;49.654;6.596;2022-12-10T00:04:21;98678.98;;;5.82;37.92
74881;BME280;63427;49.654;6.596;2022-12-10T00:06:47;98677.04;;;5.59;37.93
74881;BME280;63427;49.654;6.596;2022-12-10T00:09:15;98677.98;;;5.64;38.12
74881;BME280;63427;49.654;6.596;2022-12-10T00:11:39;98684.10;;;5.77;37.82
74881;BME280;63427;49.654;6.596;2022-12-10T00:14:04;98687.04;;;4.99;37.87
74881;BME280;63427;49.654;6.596;2022-12-10T00:16:30;98683.86;;;5.64;37.77
74881;BME280;63427;49.654;6.596;2022-12-10T00:18:55;98680.57;;;5.60;37.49
74881;BME280;63427;49.654;6.596;2022-12-10T00:21:22;98688.44;;;5.52;37.78
74881;BME280;63427;49.654;6.596;2022-12-10T00:23:46;98690.92;;;5.26;37.69
74881;BME280;63427;49.654;6.596;2022-12-10T00:26:12;98689.42;;;5.85;37.91
74881;BME280;63427;49.654;6.596;2022-12-10T00:28:36;98687.79;;;5.76;37.87
74881;BME280;63427;49.654;6.596;2022-12-10T00:31:03;98683.81;;;5.77;37.19
74881;BME280;63427;49.654;6.596;2022-12-10T00:33:27;98682.17;;;5.38;37.55
74881;BME280;63427;49.654;6.596;2022-12-10T00:35:53;98679.97;;;5.17;37.71
74881;BME280;63427;49.654;6.596;2022-12-10T00:38:19;98679.22;;;5.60;37.80
74881;BME280;63427;49.654;6.596;2022-12-10T00:40:44;98680.97;;;5.71;37.70
74881;BME280;63427;49.654;6.596;2022-12-10T00:43:09;98679.93;;;5.44;37.82
74881;BME280;63427;49.654;6.596;2022-12-10T00:45:34;98681.75;;;5.19;37.86
74881;BME280;63427;49.654;6.596;2022-12-10T00:48:00;98678.65;;;5.46;37.72
74881;BME280;63427;49.654;6.596;2022-12-10T00:50:25;98680.48;;;5.49;37.28
74881;BME280;63427;49.654;6.596;2022-12-10T00:52:51;98686.17;;;5.73;37.41
74881;BME280;63427;49.654;6.596;2022-12-10T00:55:16;98691.69;;;5.96;37.26
74881;BME280;63427;49.654;6.596;2022-12-10T00:57:41;98689.94;;;5.48;37.53
74881;BME280;63427;49.654;6.596;2022-12-10T01:00:08;98689.13;;;5.93;37.72
74881;BME280;63427;49.654;6.596;2022-12-10T01:02:32;98694.56;;;5.47;37.40
74881;BME280;63427;49.654;6.596;2022-12-10T01:04:58;98701.10;;;5.53;36.67
74881;BME280;63427;49.654;6.596;2022-12-10T01:07:23;98703.07;;;5.30;36.85
74881;BME280;63427;49.654;6.596;2022-12-10T01:09:49;98704.85;;;5.38;37.34
74881;BME280;63427;49.654;6.596;2022-12-10T01:12:14;98710.58;;;5.60;38.11
74881;BME280;63427;49.654;6.596;2022-12-10T01:14:39;98713.01;;;5.57;37.52
74881;BME280;63427;49.654;6.596;2022-12-10T01:17:05;98716.49;;;5.87;37.86
74881;BME280;63427;49.654;6.596;2022-12-10T01:19:30;98719.98;;;5.87;37.87
74881;BME280;63427;49.654;6.596;2022-12-10T01:21:56;98721.02;;;5.44;37.68
74881;BME280;63427;49.654;6.596;2022-12-10T01:24:20;98719.92;;;5.65;37.69
74881;BME280;63427;49.654;6.596;2022-12-10T01:26:46;98716.13;;;5.73;37.58
74881;BME280;63427;49.654;6.596;2022-12-10T01:29:12;98716.84;;;5.78;37.12
74881;BME280;63427;49.654;6.596;2022-12-10T01:31:38;98717.06;;;5.97;37.57
74881;BME280;63427;49.654;6.596;2022-12-10T01:34:03;98723.02;;;5.93;37.50
74881;BME280;63427;49.654;6.596;2022-12-10T01:36:30;98725.26;;;5.61;37.36
74881;BME280;63427;49.654;6.596;2022-12-10T01:38:53;98726.10;;;5.84;36.54
74881;BME280;63427;49.654;6.596;2022-12-10T01:41:21;98724.30;;;5.78;36.95
74881;BME280;63427;49.654;6.596;2022-12-10T01:43:52;98725.16;;;5.26;37.28
74881;BME280;63427;49.654;6.596;2022-12-10T01:46:10;98728.26;;;5.39;37.10
74881;BME280;63427;49.654;6.596;2022-12-10T01:48:36;98730.96;;;5.81;37.22
74881;BME280;63427;49.654;6.596;2022-12-10T01:51:01;98732.72;;;5.50;36.74
74881;BME280;63427;49.654;6.596;2022-12-10T01:53:27;98732.38;;;5.62;36.88
74881;BME280;63427;49.654;6.596;2022-12-10T01:55:52;98732.30;;;5.98;36.74
74881;BME280;63427;49.654;6.596;2022-12-10T01:58:19;98735.01;;;5.27;36.68
74881;BME280;63427;49.654;6.596;2022-12-10T02:00:54;98736.82;;;5.68;36.55
74881;BME280;63427;49.654;6.596;2022-12-10T02:03:14;98739.89;;;5.38;36.71
74881;BME280;63427;49.654;6.596;2022-12-10T02:05:38;98737.58;;;5.07;36.76
74881;BME280;63427;49.654;6.596;2022-12-10T02:08:08;98739.84;;;5.25;36.64
74881;BME280;63427;49.654;6.596;2022-12-10T02:10:34;98740.25;;;5.03;36.95
74881;BME280;63427;49.654;6.596;2022-12-10T02:12:56;98737.41;;;5.21;36.75
74881;BME280;63427;49.654;6.596;2022-12-10T02:15:19;98735.68;;;5.01;36.62
74881;BME280;63427;49.654;6.596;2022-12-10T02:17:44;98738.94;;;5.20;36.76
74881;BME280;63427;49.654;6.596;2022-12-10T02:20:11;98740.68;;;5.17;36.70
74881;BME280;63427;49.654;6.596;2022-12-10T02:22:36;98748.03;;;5.15;37.04
74881;BME280;63427;49.654;6.596;2022-12-10T02:24:59;98750.86;;;5.00;36.96
74881;BME280;63427;49.654;6.596;2022-12-10T02:27:29;98747.42;;;5.12;36.86
74881;BME280;63427;49.654;6.596;2022-12-10T02:29:51;98748.42;;;5.22;36.77
74881;BME280;63427;49.654;6.596;2022-12-10T02:32:18;98749.79;;;4.84;37.44
74881;BME280;63427;49.654;6.596;2022-12-10T02:34:44;98750.99;;;4.97;37.38
74881;BME280;63427;49.654;6.596;2022-12-10T02:37:09;98751.52;;;5.05;37.24
74881;BME280;63427;49.654;6.596;2022-12-10T02:39:34;98747.02;;;5.06;36.79
74881;BME280;63427;49.654;6.596;2022-12-10T02:41:58;98744.15;;;4.80;37.34
74881;BME280;63427;49.654;6.596;2022-12-10T02:44:23;98743.70;;;4.95;37.29
74881;BME280;63427;49.654;6.596;2022-12-10T02:46:50;98743.53;;;4.87;37.21
74881;BME280;63427;49.654;6.596;2022-12-10T02:49:14;98746.24;;;5.04;37.06
74881;BME280;63427;49.654;6.596;2022-12-10T02:51:37;98746.25;;;5.17;36.98
74881;BME280;63427;49.654;6.596;2022-12-10T02:54:05;98747.79;;;4.69;37.30
74881;BME280;63427;49.654;6.596;2022-12-10T02:56:33;98740.13;;;5.00;37.28
74881;BME280;63427;49.654;6.596;2022-12-10T02:59:02;98742.15;;;4.75;37.05
74881;BME280;63427;49.654;6.596;2022-12-10T03:01:25;98741.24;;;4.47;37.59
74881;BME280;63427;49.654;6.596;2022-12-10T03:03:48;98736.63;;;4.95;37.31
74881;BME280;63427;49.654;6.596;2022-12-10T03:06:12;98739.07;;;4.62;37.43
74881;BME280;63427;49.654;6.596;2022-12-10T03:08:40;98737.12;;;4.49;37.67
74881;BME280;63427;49.654;6.596;2022-12-10T03:11:05;98739.54;;;4.93;37.59
74881;BME280;63427;49.654;6.596;2022-12-10T03:13:29;98736.43;;;4.59;37.56
74881;BME280;63427;49.654;6.596;2022-12-10T03:15:51;98735.32;;;4.42;37.78
74881;BME280;63427;49.654;6.596;2022-12-10T03:18:17;98735.86;;;4.73;37.71
74881;BME280;63427;49.654;6.596;2022-12-10T03:20:44;98740.00;;;4.78;37.88
74881;BME280;63427;49.654;6.596;2022-12-10T03:23:09;98742.92;;;4.63;38.00
74881;BME280;63427;49.654;6.596;2022-12-10T03:25:32;98744.26;;;4.57;38.21
74881;BME280;63427;49.654;6.596;2022-12-10T03:27:58;98744.07;;;4.47;38.46
74881;BME280;63427;49.654;6.596;2022-12-10T03:30:22;98744.86;;;4.64;38.22
74881;BME280;63427;49.654;6.596;2022-12-10T03:32:49;98744.82;;;4.68;38.41
74881;BME280;63427;49.654;6.596;2022-12-10T03:35:14;98743.59;;;4.79;38.35
74881;BME280;63427;49.654;6.596;2022-12-10T03:37:39;98743.85;;;4.85;38.23
74881;BME280;63427;49.654;6.596;2022-12-10T03:40:06;98746.47;;;4.40;38.46
74881;BME280;63427;49.654;6.596;2022-12-10T03:42:29;98753.47;;;4.51;38.58
74881;BME280;63427;49.654;6.596;2022-12-10T03:44:54;98747.02;;;4.63;38.41
74881;BME280;63427;49.654;6.596;2022-12-10T03:47:20;98746.36;;;4.68;37.95
74881;BME280;63427;49.654;6.596;2022-12-10T03:49:45;98745.69;;;4.68;38.13
74881;BME280;63427;49.654;6.596;2022-12-10T03:52:12;98748.06;;;4.77;38.22
74881;BME280;63427;49.654;6.596;2022-12-10T03:54:37;98750.98;;;4.45;38.27
74881;BME280;63427;49.654;6.596;2022-12-10T03:57:02;98748.81;;;4.76;38.16
74881;BME280;63427;49.654;6.596;2022-12-10T03:59:28;98749.13;;;4.77;38.13
74881;BME280;63427;49.654;6.596;2022-12-10T04:01:54;98754.41;;;4.83;38.11
74881;BME280;63427;49.654;6.596;2022-12-10T04:04:19;98758.00;;;4.84;38.13
74881;BME280;63427;49.654;6.596;2022-12-10T04:06:44;98755.88;;;4.68;38.00
74881;BME280;63427;49.654;6.596;2022-12-10T04:09:11;98756.89;;;4.81;38.17
74881;BME280;63427;49.654;6.596;2022-12-10T04:11:36;98760.98;;;4.70;38.05
74881;BME280;63427;49.654;6.596;2022-12-10T04:14:00;98758.64;;;4.79;37.93
74881;BME280;63427;49.654;6.596;2022-12-10T04:16:27;98756.62;;;4.72;38.00
74881;BME280;63427;49.654;6.596;2022-12-10T04:18:51;98758.36;;;4.80;37.91
74881;BME280;63427;49.654;6.596;2022-12-10T04:21:17;98760.58;;;4.74;38.03
74881;BME280;63427;49.654;6.596;2022-12-10T04:23:43;98765.25;;;5.30;37.87
74881;BME280;63427;49.654;6.596;2022-12-10T04:26:07;98767.55;;;4.94;37.68
74881;BME280;63427;49.654;6.596;2022-12-10T04:28:33;98764.22;;;4.89;37.78
74881;BME280;63427;49.654;6.596;2022-12-10T04:30:59;98765.82;;;5.02;38.01
74881;BME280;63427;49.654;6.596;2022-12-10T04:33:24;98767.64;;;4.77;38.00
74881;BME280;63427;49.654;6.596;2022-12-10T04:35:50;98769.79;;;4.75;37.81
74881;BME280;63427;49.654;6.596;2022-12-10T04:38:16;98770.93;;;4.82;38.13
74881;BME280;63427;49.654;6.596;2022-12-10T04:40:41;98775.73;;;4.79;38.02
74881;BME280;63427;49.654;6.596;2022-12-10T04:43:06;98780.05;;;4.53;38.18
74881;BME280;63427;49.654;6.596;2022-12-10T04:45:33;98785.55;;;4.78;38.41
74881;BME280;63427;49.654;6.596;2022-12-10T04:47:57;98787.29;;;4.48;38.42
74881;BME280;63427;49.654;6.596;2022-12-10T04:50:23;98790.31;;;4.76;38.39
74881;BME280;63427;49.654;6.596;2022-12-10T04:52:48;98789.43;;;4.69;38.46
74881;BME280;63427;49.654;6.596;2022-12-10T04:55:13;98786.42;;;4.82;38.13
74881;BME280;63427;49.654;6.596;2022-12-10T04:57:38;98788.70;;;4.46;38.36
74881;BME280;63427;49.654;6.596;2022-12-10T05:00:14;98790.69;;;4.84;38.18
74881;BME280;63427;49.654;6.596;2022-12-10T05:02:28;98792.77;;;4.69;38.40
74881;BME280;63427;49.654;6.596;2022-12-10T05:04:54;98796.70;;;4.86;38.41
74881;BME280;63427;49.654;6.596;2022-12-10T05:07:19;98795.21;;;4.88;38.45
74881;BME280;63427;49.654;6.596;2022-12-10T05:09:44;98799.02;;;4.69;38.34
74881;BME280;63427;49.654;6.596;2022-12-10T05:12:10;98802.82;;;4.61;38.50
74881;BME280;63427;49.654;6.596;2022-12-10T05:14:35;98803.85;;;4.67;38.37
74881;BME280;63427;49.654;6.596;2022-12-10T05:17:01;98806.20;;;4.69;38.47
74881;BME280;63427;49.654;6.596;2022-12-10T05:19:26;98806.40;;;4.54;38.42
74881;BME280;63427;49.654;6.596;2022-12-10T05:21:52;98805.98;;;4.81;38.51
74881;BME280;63427;49.654;6.596;2022-12-10T05:24:18;98803.59;;;4.54;38.62
74881;BME280;63427;49.654;6.596;2022-12-10T05:26:42;98804.92;;;4.48;38.41
74881;BME280;63427;49.654;6.596;2022-12-10T05:29:08;98808.66;;;4.60;38.54
74881;BME280;63427;49.654;6.596;2022-12-10T05:31:33;98811.98;;;4.60;38.55
74881;BME280;63427;49.654;6.596;2022-12-10T05:33:58;98812.30;;;4.59;38.22
74881;BME280;63427;49.654;6.596;2022-12-10T05:36:27;98810.40;;;4.50;38.33
74881;BME280;63427;49.654;6.596;2022-12-10T05:38:49;98809.72;;;4.70;38.20
74881;BME280;63427;49.654;6.596;2022-12-10T05:41:17;98809.11;;;4.41;38.60
74881;BME280;63427;49.654;6.596;2022-12-10T05:43:40;98810.22;;;4.25;38.27
74881;BME280;63427;49.654;6.596;2022-12-10T05:46:09;98812.66;;;4.60;38.59
74881;BME280;63427;49.654;6.596;2022-12-10T05:48:33;98814.36;;;4.52;38.15
74881;BME280;63427;49.654;6.596;2022-12-10T05:50:56;98816.60;;;4.26;38.96
74881;BME280;63427;49.654;6.596;2022-12-10T05:53:22;98815.97;;;4.36;38.18
74881;BME280;63427;49.654;6.596;2022-12-10T05:55:47;98817.35;;;4.41;38.44
74881;BME280;63427;49.654;6.596;2022-12-10T05:58:13;98825.41;;;4.30;38.61
74881;BME280;63427;49.654;6.596;2022-12-10T06:00:39;98826.06;;;4.56;38.14
74881;BME280;63427;49.654;6.596;2022-12-10T06:03:04;98826.53;;;4.51;37.96
74881;BME280;63427;49.654;6.596;2022-12-10T06:05:29;98824.91;;;4.46;37.98
74881;BME280;63427;49.654;6.596;2022-12-10T06:07:55;98830.07;;;4.61;37.71
74881;BME280;63427;49.654;6.596;2022-12-10T06:10:20;98832.78;;;4.41;37.83
74881;BME280;63427;49.654;6.596;2022-12-10T06:12:46;98837.56;;;4.14;37.80
74881;BME280;63427;49.654;6.596;2022-12-10T06:15:12;98838.39;;;4.34;38.03
74881;BME280;63427;49.654;6.596;2022-12-10T06:17:37;98840.92;;;4.25;37.95
74881;BME280;63427;49.654;6.596;2022-12-10T06:20:03;98841.89;;;4.14;37.84
74881;BME280;63427;49.654;6.596;2022-12-10T06:22:28;98842.51;;;4.05;37.74
74881;BME280;63427;49.654;6.596;2022-12-10T06:24:54;98842.80;;;3.77;37.86
74881;BME280;63427;49.654;6.596;2022-12-10T06:27:19;98844.82;;;4.06;37.30
74881;BME280;63427;49.654;6.596;2022-12-10T06:29:44;98846.12;;;4.04;36.93
74881;BME280;63427;49.654;6.596;2022-12-10T06:32:10;98853.76;;;4.03;36.89
74881;BME280;63427;49.654;6.596;2022-12-10T06:34:36;98856.84;;;4.04;36.95
74881;BME280;63427;49.654;6.596;2022-12-10T06:37:01;98859.37;;;3.61;37.23
74881;BME280;63427;49.654;6.596;2022-12-10T06:39:27;98865.46;;;3.48;37.37
74881;BME280;63427;49.654;6.596;2022-12-10T06:41:52;98867.07;;;3.74;37.23
74881;BME280;63427;49.654;6.596;2022-12-10T06:44:17;98870.41;;;3.70;37.03
74881;BME280;63427;49.654;6.596;2022-12-10T06:46:43;98872.36;;;3.97;36.92
74881;BME280;63427;49.654;6.596;2022-12-10T06:49:08;98876.60;;;4.04;37.03
74881;BME280;63427;49.654;6.596;2022-12-10T06:51:34;98882.01;;;3.70;37.86
74881;BME280;63427;49.654;6.596;2022-12-10T06:53:58;98883.08;;;3.89;37.44
74881;BME280;63427;49.654;6.596;2022-12-10T06:56:24;98880.52;;;4.03;37.48
74881;BME280;63427;49.654;6.596;2022-12-10T06:58:49;98883.04;;;4.11;37.11
74881;BME280;63427;49.654;6.596;2022-12-10T07:01:16;98889.18;;;3.78;37.63
74881;BME280;63427;49.654;6.596;2022-12-10T07:03:40;98893.13;;;3.88;37.30
74881;BME280;63427;49.654;6.596;2022-12-10T07:06:05;98889.99;;;3.82;37.25
74881;BME280;63427;49.654;6.596;2022-12-10T07:08:30;98890.93;;;4.13;36.80
74881;BME280;63427;49.654;6.596;2022-12-10T07:10:55;98896.68;;;3.18;37.58
74881;BME280;63427;49.654;6.596;2022-12-10T07:13:20;98899.83;;;3.06;38.26
74881;BME280;63427;49.654;6.596;2022-12-10T07:15:46;98900.30;;;3.16;38.09
74881;BME280;63427;49.654;6.596;2022-12-10T07:18:12;98899.16;;;3.50;38.26
74881;BME280;63427;49.654;6.596;2022-12-10T07:20:37;98897.04;;;3.34;37.57
74881;BME280;63427;49.654;6.596;2022-12-10T07:23:02;98900.36;;;3.30;37.54
74881;BME280;63427;49.654;6.596;2022-12-10T07:25:28;98895.79;;;3.71;37.27
74881;BME280;63427;49.654;6.596;2022-12-10T07:27:53;98899.77;;;4.18;37.05
74881;BME280;63427;49.654;6.596;2022-12-10T07:30:18;98902.84;;;4.24;37.01
74881;BME280;63427;49.654;6.596;2022-12-10T07:32:43;98906.65;;;4.44;36.71
74881;BME280;63427;49.654;6.596;2022-12-10T07:35:09;98909.27;;;4.59;35.56
74881;BME280;63427;49.654;6.596;2022-12-10T07:37:37;98915.06;;;4.51;35.60
74881;BME280;63427;49.654;6.596;2022-12-10T07:40:00;98915.36;;;4.33;35.56
74881;BME280;63427;49.654;6.596;2022-12-10T07:42:26;98920.84;;;4.56;35.71
74881;BME280;63427;49.654;6.596;2022-12-10T07:44:51;98920.20;;;4.35;35.51
74881;BME280;63427;49.654;6.596;2022-12-10T07:47:17;98919.51;;;4.49;35.91
74881;BME280;63427;49.654;6.596;2022-12-10T07:49:42;98925.38;;;4.59;35.14
74881;BME280;63427;49.654;6.596;2022-12-10T07:52:08;98923.15;;;4.74;35.08
74881;BME280;63427;49.654;6.596;2022-12-10T07:54:33;98927.58;;;4.45;35.13
74881;BME280;63427;49.654;6.596;2022-12-10T07:56:59;98932.35;;;4.13;35.50
74881;BME280;63427;49.654;6.596;2022-12-10T07:59:24;98938.00;;;4.29;35.55
74881;BME280;63427;49.654;6.596;2022-12-10T08:01:51;98939.75;;;4.21;35.64
74881;BME280;63427;49.654;6.596;2022-12-10T08:04:15;98944.04;;;4.21;35.60
74881;BME280;63427;49.654;6.596;2022-12-10T08:06:40;98946.23;;;4.59;36.17
74881;BME280;63427;49.654;6.596;2022-12-10T08:09:06;98948.71;;;4.72;36.00
74881;BME280;63427;49.654;6.596;2022-12-10T08:11:31;98949.57;;;4.80;35.42
74881;BME280;63427;49.654;6.596;2022-12-10T08:13:57;98951.68;;;4.88;35.50
74881;BME280;63427;49.654;6.596;2022-12-10T08:16:24;98952.27;;;5.01;35.49
74881;BME280;63427;49.654;6.596;2022-12-10T08:18:47;98954.01;;;4.42;34.96
74881;BME280;63427;49.654;6.596;2022-12-10T08:21:14;98954.40;;;4.55;35.19
74881;BME280;63427;49.654;6.596;2022-12-10T08:23:38;98961.03;;;4.56;35.35
74881;BME280;63427;49.654;6.596;2022-12-10T08:26:05;98963.46;;;4.34;35.63
74881;BME280;63427;49.654;6.596;2022-12-10T08:28:29;98967.09;;;4.12;36.26
74881;BME280;63427;49.654;6.596;2022-12-10T08:30:54;98973.80;;;4.28;35.76
74881;BME280;63427;49.654;6.596;2022-12-10T08:33:20;98977.00;;;4.18;35.57
74881;BME280;63427;49.654;6.596;2022-12-10T08:35:45;98975.84;;;4.12;35.51
74881;BME280;63427;49.654;6.596;2022-12-10T08:38:10;98975.39;;;4.56;35.60
74881;BME280;63427;49.654;6.596;2022-12-10T08:40:39;98966.62;;;4.52;35.94
74881;BME280;63427;49.654;6.596;2022-12-10T08:43:01;98965.72;;;4.87;34.91
74881;BME280;63427;49.654;6.596;2022-12-10T08:45:26;98967.55;;;4.37;34.96
74881;BME280;63427;49.654;6.596;2022-12-10T08:47:52;98969.83;;;4.56;35.30
74881;BME280;63427;49.654;6.596;2022-12-10T08:50:18;98976.71;;;4.81;35.12
74881;BME280;63427;49.654;6.596;2022-12-10T08:52:43;98977.45;;;5.01;34.50
74881;BME280;63427;49.654;6.596;2022-12-10T08:55:09;98978.64;;;4.54;34.74
74881;BME280;63427;49.654;6.596;2022-12-10T08:57:34;98985.44;;;4.55;34.91
74881;BME280;63427;49.654;6.596;2022-12-10T08:59:59;98990.87;;;4.04;35.51
74881;BME280;63427;49.654;6.596;2022-12-10T09:02:24;98996.37;;;4.24;35.48
74881;BME280;63427;49.654;6.596;2022-12-10T09:04:50;98999.16;;;4.04;35.54
74881;BME280;63427;49.654;6.596;2022-12-10T09:07:16;98997.35;;;4.71;35.74
74881;BME280;63427;49.654;6.596;2022-12-10T09:09:41;98997.72;;;4.64;35.07
74881;BME280;63427;49.654;6.596;2022-12-10T09:12:07;99003.57;;;4.42;35.25
74881;BME280;63427;49.654;6.596;2022-12-10T09:14:32;99000.25;;;4.73;34.74
74881;BME280;63427;49.654;6.596;2022-12-10T09:16:58;99004.19;;;4.54;34.53
74881;BME280;63427;49.654;6.596;2022-12-10T09:19:23;99013.46;;;5.00;34.63
74881;BME280;63427;49.654;6.596;2022-12-10T09:21:49;99014.83;;;4.67;34.88
74881;BME280;63427;49.654;6.596;2022-12-10T09:24:14;99016.96;;;4.69;34.53
74881;BME280;63427;49.654;6.596;2022-12-10T09:26:40;99015.58;;;5.20;34.07
74881;BME280;63427;49.654;6.596;2022-12-10T09:29:04;99015.93;;;4.98;33.93
74881;BME280;63427;49.654;6.596;2022-12-10T09:31:30;99014.55;;;5.17;33.92
74881;BME280;63427;49.654;6.596;2022-12-10T09:33:55;99014.81;;;4.97;33.90
74881;BME280;63427;49.654;6.596;2022-12-10T09:36:22;99021.83;;;5.21;33.50
74881;BME280;63427;49.654;6.596;2022-12-10T09:38:47;99022.69;;;5.24;33.25
74881;BME280;63427;49.654;6.596;2022-12-10T09:41:31;99023.47;;;5.01;33.71
74881;BME280;63427;49.654;6.596;2022-12-10T09:43:46;99021.63;;;4.86;33.34
74881;BME280;63427;49.654;6.596;2022-12-10T09:46:08;99024.43;;;5.57;33.23
74881;BME280;63427;49.654;6.596;2022-12-10T09:48:32;99019.33;;;5.16;33.67
74881;BME280;63427;49.654;6.596;2022-12-10T09:51:00;99020.06;;;5.53;33.60
74881;BME280;63427;49.654;6.596;2022-12-10T09:53:21;99023.10;;;5.52;33.05
74881;BME280;63427;49.654;6.596;2022-12-10T09:55:46;99022.30;;;5.22;33.29
74881;BME280;63427;49.654;6.596;2022-12-10T09:58:15;99017.97;;;5.00;33.55
74881;BME280;63427;49.654;6.596;2022-12-10T10:00:39;99017.90;;;4.86;33.27
74881;BME280;63427;49.654;6.596;2022-12-10T10:03:02;99019.89;;;5.44;33.28
74881;BME280;63427;49.654;6.596;2022-12-10T10:05:28;99016.86;;;5.46;32.65
74881;BME280;63427;49.654;6.596;2022-12-10T10:07:53;99018.96;;;5.55;32.65
74881;BME280;63427;49.654;6.596;2022-12-10T10:10:23;99015.12;;;5.39;32.80
74881;BME280;63427;49.654;6.596;2022-12-10T10:12:44;99015.44;;;5.63;33.31
74881;BME280;63427;49.654;6.596;2022-12-10T10:15:13;99018.02;;;5.89;32.43
74881;BME280;63427;49.654;6.596;2022-12-10T10:17:37;99019.48;;;5.95;31.82
74881;BME280;63427;49.654;6.596;2022-12-10T10:20:00;99017.63;;;5.45;32.31
74881;BME280;63427;49.654;6.596;2022-12-10T10:22:25;99020.47;;;5.71;32.73
74881;BME280;63427;49.654;6.596;2022-12-10T10:24:51;99014.89;;;6.44;32.32
74881;BME280;63427;49.654;6.596;2022-12-10T10:27:18;99011.96;;;6.01;31.21
74881;BME280;63427;49.654;6.596;2022-12-10T10:29:43;99007.20;;;6.62;31.62
74881;BME280;63427;49.654;6.596;2022-12-10T10:32:14;99004.18;;;6.54;30.72
74881;BME280;63427;49.654;6.596;2022-12-10T10:34:33;99008.53;;;5.85;31.25
74881;BME280;63427;49.654;6.596;2022-12-10T10:37:00;99010.59;;;6.82;30.95
74881;BME280;63427;49.654;6.596;2022-12-10T10:39:28;99003.69;;;7.06;29.96
74881;BME280;63427;49.654;6.596;2022-12-10T10:41:53;99002.59;;;7.29;30.73
74881;BME280;63427;49.654;6.596;2022-12-10T10:44:18;98999.55;;;6.68;30.83
74881;BME280;63427;49.654;6.596;2022-12-10T10:46:41;99000.64;;;7.28;30.61
74881;BME280;63427;49.654;6.596;2022-12-10T10:49:13;99006.34;;;7.04;29.94
74881;BME280;63427;49.654;6.596;2022-12-10T10:51:41;99003.40;;;7.86;28.71
74881;BME280;63427;49.654;6.596;2022-12-10T10:53:57;99004.63;;;8.06;29.50
74881;BME280;63427;49.654;6.596;2022-12-10T10:56:24;99002.66;;;8.61;30.10
74881;BME280;63427;49.654;6.596;2022-12-10T10:58:53;99005.86;;;8.73;28.93
74881;BME280;63427;49.654;6.596;2022-12-10T11:01:13;99003.86;;;9.43;26.96
74881;BME280;63427;49.654;6.596;2022-12-10T11:03:45;99007.18;;;9.04;27.04
74881;BME280;63427;49.654;6.596;2022-12-10T11:06:07;99000.89;;;9.65;27.42
74881;BME280;63427;49.654;6.596;2022-12-10T11:08:31;99000.48;;;8.81;26.10
74881;BME280;63427;49.654;6.596;2022-12-10T11:11:01;98996.47;;;9.43;28.40
74881;BME280;63427;49.654;6.596;2022-12-10T11:13:24;98999.77;;;10.12;27.36
74881;BME280;63427;49.654;6.596;2022-12-10T11:15:57;99001.05;;;9.79;25.33
74881;BME280;63427;49.654;6.596;2022-12-10T11:18:23;99001.77;;;10.04;24.97
74881;BME280;63427;49.654;6.596;2022-12-10T11:20:38;98996.90;;;10.03;25.62
74881;BME280;63427;49.654;6.596;2022-12-10T11:23:08;98996.71;;;10.56;25.59
74881;BME280;63427;49.654;6.596;2022-12-10T11:25:38;98999.46;;;10.62;24.87
74881;BME280;63427;49.654;6.596;2022-12-10T11:27:57;98993.61;;;11.37;24.02
74881;BME280;63427;49.654;6.596;2022-12-10T11:30:20;98991.91;;;11.37;25.14
74881;BME280;63427;49.654;6.596;2022-12-10T11:32:55;98993.15;;;11.24;24.66
74881;BME280;63427;49.654;6.596;2022-12-10T11:35:13;98993.13;;;11.69;23.07
74881;BME280;63427;49.654;6.596;2022-12-10T11:37:39;98995.20;;;12.19;24.20
74881;BME280;63427;49.654;6.596;2022-12-10T11:40:11;98992.65;;;12.52;22.66
74881;BME280;63427;49.654;6.596;2022-12-10T11:42:33;98992.77;;;12.85;22.68
74881;BME280;63427;49.654;6.596;2022-12-10T11:44:57;98995.75;;;12.67;21.66
74881;BME280;63427;49.654;6.596;2022-12-10T11:47:29;98994.21;;;12.61;21.74
74881;BME280;63427;49.654;6.596;2022-12-10T11:49:51;98994.41;;;12.65;22.27
74881;BME280;63427;49.654;6.596;2022-12-10T11:52:13;98994.17;;;12.41;22.30
74881;BME280;63427;49.654;6.596;2022-12-10T11:54:45;98994.70;;;12.59;21.34
74881;BME280;63427;49.654;6.596;2022-12-10T11:57:05;98998.11;;;12.70;22.01
74881;BME280;63427;49.654;6.596;2022-12-10T11:59:30;98997.94;;;12.49;21.37
74881;BME280;63427;49.654;6.596;2022-12-10T12:02:05;99002.32;;;12.23;22.18
74881;BME280;63427;49.654;6.596;2022-12-10T12:04:25;99004.81;;;12.63;23.24
74881;BME280;63427;49.654;6.596;2022-12-10T12:06:58;99006.40;;;12.89;20.84
74881;BME280;63427;49.654;6.596;2022-12-10T12:09:13;99007.57;;;12.47;21.04
74881;BME280;63427;49.654;6.596;2022-12-10T12:11:48;99009.40;;;12.59;21.24
74881;BME280;63427;49.654;6.596;2022-12-10T12:14:04;99010.66;;;12.69;21.34
74881;BME280;63427;49.654;6.596;2022-12-10T12:16:28;99011.02;;;12.87;21.37
74881;BME280;63427;49.654;6.596;2022-12-10T12:18:53;99010.74;;;12.96;21.16
74881;BME280;63427;49.654;6.596;2022-12-10T12:21:16;99009.79;;;13.16;22.21
74881;BME280;63427;49.654;6.596;2022-12-10T12:23:47;99005.90;;;13.56;20.73
74881;BME280;63427;49.654;6.596;2022-12-10T12:26:09;99006.20;;;13.54;20.65
74881;BME280;63427;49.654;6.596;2022-12-10T12:28:35;99006.45;;;13.47;20.77
74881;BME280;63427;49.654;6.596;2022-12-10T12:31:01;99003.61;;;13.94;20.96
74881;BME280;63427;49.654;6.596;2022-12-10T12:33:28;99001.28;;;14.09;20.46
74881;BME280;63427;49.654;6.596;2022-12-10T12:35:50;99005.77;;;14.25;19.92
74881;BME280;63427;49.654;6.596;2022-12-10T12:38:21;99003.17;;;14.20;21.08
74881;BME280;63427;49.654;6.596;2022-12-10T12:40:43;99001.62;;;14.17;19.67
74881;BME280;63427;49.654;6.596;2022-12-10T12:43:09;98999.26;;;14.46;19.87
74881;BME280;63427;49.654;6.596;2022-12-10T12:45:33;98997.96;;;13.54;19.55
74881;BME280;63427;49.654;6.596;2022-12-10T12:47:59;98995.38;;;14.03;20.51
74881;BME280;63427;49.654;6.596;2022-12-10T12:50:26;98999.19;;;13.85;20.17
74881;BME280;63427;49.654;6.596;2022-12-10T12:52:50;98996.93;;;13.55;20.26
74881;BME280;63427;49.654;6.596;2022-12-10T12:55:15;99000.27;;;13.45;20.25
74881;BME280;63427;49.654;6.596;2022-12-10T12:57:41;99001.45;;;14.01;20.97
74881;BME280;63427;49.654;6.596;2022-12-10T13:00:05;99000.26;;;13.47;20.20